Flight Track Log - Related Links

Times and Time Zones

All times are in EDT time to prevent confusion due to time zone crossing. See the AFR7789 flight status page for this flight to view local times or setup timezone preferences in your user account.

Time Position Orientation Groundspeed Altitude Reporting Facility
EDT Latitude Longitude Course Direction KTS MPH feet Rate Location/Type
Wed 02:02:00 PM 44.2829 1.4959 North  Level Estimated
Wed 02:03:00 PM 44.3646 1.5126 North  Level Estimated
Wed 02:04:00 PM 44.4463 1.5293 North  Level Estimated
Wed 02:05:00 PM 44.5280 1.5461 North  Level Estimated
Wed 02:06:00 PM 44.6097 1.5630 North  Level Estimated
Wed 02:07:00 PM 44.6914 1.5799 North  Level Estimated
Wed 02:08:00 PM 44.7731 1.5968 North  Level Estimated
Wed 02:09:00 PM 44.8548 1.6138 North  Level Estimated
Wed 02:10:00 PM 44.9365 1.6309 North  Level Estimated
Wed 02:11:00 PM 45.0182 1.6480 North  Level Estimated
Wed 02:12:00 PM 45.0999 1.6651 North  Level Estimated
Wed 02:13:00 PM 45.1816 1.6823 North  Level Estimated
Wed 02:14:00 PM 45.2633 1.6995 North  Level Estimated
Wed 02:15:00 PM 45.3450 1.7168 North  Level Estimated
Wed 02:16:00 PM 45.4266 1.7342 North  Level Estimated
Wed 02:17:00 PM 45.5083 1.7515 North  Level Estimated
Wed 02:18:00 PM 45.5900 1.7690 North  Level Estimated
Wed 02:19:00 PM 45.6717 1.7865 North  Level Estimated
Wed 02:20:00 PM 45.7533 1.8040 North  Level Estimated
Wed 02:21:00 PM 45.8350 1.8216 North  Level Estimated
Wed 02:22:00 PM 45.9167 1.8392 North  Level Estimated
Wed 02:23:00 PM 45.9983 1.8569 North  Level Estimated
Wed 02:24:00 PM 46.0800 1.8747 North  Level Estimated
Wed 02:25:00 PM 46.1617 1.8925 North  Level Estimated
Wed 02:26:00 PM 46.2433 1.9103 North  Level Estimated
Wed 02:27:00 PM 46.3250 1.9282 North  Level Estimated
Wed 02:28:00 PM 46.4066 1.9462 North  Level Estimated
Wed 02:29:00 PM 46.4883 1.9642 North  Level Estimated
Wed 02:30:00 PM 46.5699 1.9823 North  Level Estimated
Wed 02:31:00 PM 46.6515 2.0004 North  Level Estimated
Wed 02:32:00 PM 46.7332 2.0186 North  Level Estimated
Wed 02:33:00 PM 46.8148 2.0368 North  Level Estimated
Wed 02:34:00 PM 46.8964 2.0551 North  Level Estimated
Wed 02:35:00 PM 46.9781 2.0735 North  Level Estimated
Wed 02:36:00 PM 47.0597 2.0919 North  Level Estimated
Wed 02:37:00 PM 47.1413 2.1103 North  Level Estimated
Wed 02:38:00 PM 47.2229 2.1288 North  Level Estimated
Wed 02:39:00 PM 47.3046 2.1474 North  Level Estimated
Wed 02:40:00 PM 47.3862 2.1660 North  Level Estimated
Wed 02:41:00 PM 47.4678 2.1847 North  Level Estimated
Wed 02:42:00 PM 47.5396 2.2012 North  Level Estimated
Wed 02:43:00 PM 47.6114 2.2178 North  Level Estimated
Wed 02:44:00 PM 47.6832 2.2343 North  Level Estimated
Wed 02:45:00 PM 47.7550 2.2510 North  Level Estimated
Wed 02:46:00 PM 47.8268 2.2676 North  Level Estimated
Wed 02:47:00 PM 47.8986 2.2843 North  Level Estimated
Wed 02:48:00 PM 47.9704 2.3011 North  Level Estimated
Wed 02:49:00 PM 48.0422 2.3179 North  Level Estimated
Wed 02:50:00 PM 48.1140 2.3348 North  Level Estimated
Wed 02:51:00 PM 48.1858 2.3517 North  Level Estimated
Wed 02:52:00 PM 48.2576 2.3687 North  Level Estimated
Wed 02:53:00 PM 48.3294 2.3857 North  Level Estimated
Wed 02:54:00 PM 48.4012 2.4027 North  Level Estimated
Wed 02:55:00 PM 48.4730 2.4198 North  Level Estimated
Wed 02:56:00 PM 48.5447 2.4370 North  Level Estimated
Wed 02:57:00 PM 48.6165 2.4542 North  Level Estimated
Wed 02:58:00 PM 48.6883 2.4714 North  Level Estimated
Wed 02:59:00 PM 48.7601 2.4887 North  Level Estimated
Wed 03:00:00 PM 48.8318 2.5061 North  Level Estimated
Wed 03:01:00 PM 48.9036 2.5234 North  Level Estimated
Wed 03:02:00 PM 48.9754 2.5409 North  Level Estimated
Wed 03:03:00 PM 49.0128 2.5500 North  Level Estimated
Wed 03:04:00 PM 49.0128 2.5500 180° South  Level Estimated
Wed 03:05:00 PM 49.0128 2.5500 180° South  Level Estimated
Wed 03:06:00 PM 49.0128 2.5500 180° South  Level Estimated
Wed 03:07:00 PM 49.0128 2.5500 180° South  Level Estimated
Wed 03:08:00 PM 49.0128 2.5500 180° South  Level Estimated
Wed 03:09:00 PM 49.0128 2.5500 180° South  Level Estimated
Wed 03:10:00 PM 49.0128 2.5500 180° South  Level Estimated
Wed 03:11:00 PM 49.0128 2.5500 180° South  Level Estimated
Wed 03:12:00 PM 49.0128 2.5500 180° South  Level Estimated
Wed 03:13:00 PM 49.0128 2.5500 180° South  Level Estimated
Wed 03:14:00 PM 49.0128 2.5500 180° South  Level Estimated
Wed 03:15:00 PM 49.0128 2.5500 180° South  Level Estimated
Wed 03:16:00 PM 49.0128 2.5500 180° South  Level Estimated
Wed 03:17:00 PM 49.0128 2.5500 180° South  Level Estimated
Wed 03:18:00 PM 49.0128 2.5500 180° South  Level Estimated
Wed 03:19:00 PM 49.0128 2.5500 180° South  Level Estimated
Wed 03:20:00 PM 49.0128 2.5500 180° South  Level Estimated

Login

Don't have an account? Register now (free) for customized features, flight alerts, and more!